To NAV CANADA Home Page Login to a new session Search on AWWS site Disclaimer Vers la page française équivalente Tips FAQ What's new on the site To the Forecasts and Observations / NOTAM section To "File a Flight Plan" website Publications and other links Update of the User's profile FIC Telephone Numbers My Weather Data Folder Route Weather Data Regional Weather Data Local Weather Data To the Forecasts and Observations / NOTAM section
Request Generated 11/13/2018 at 19:08:11 UTC . Weather information available at that time is displayed.

METAR/TAF

NORWAY HOUSE/MB    (show WxCam)

METAR CYNE 131900Z AUTO 35003KT 290V030 9SM OVC035 M10/M15 A3030 RMK SLP285=
METAR CYNE 131800Z AUTO 33004KT 310V020 9SM BKN033 M10/M15 A3032 RMK SLP292=
METAR CYNE 131700Z AUTO 20003KT 9SM CLR M11/M14 A3033 RMK SLP293=

TAF CYNE 131838Z 1319/1407 VRB03KT P6SM SCT020 TEMPO 1319/1404 4SM
-SN BKN020
FM140400 12006KT P6SM SCT015 BKN080 OVC150 TEMPO 1404/1407 4SM
-SN BKN012 OVC060
RMK FCST BASED ON AUTO OBS. NXT FCST BY 140100Z=
Your time UTC time
Weather data provided by Environment Canada and NAV CANADA